sensor_id;sensor_type;location;lat;lon;timestamp;P1;durP1;ratioP1;P2;durP2;ratioP2
14965;SDS011;7577;45.226;5.798;2022-08-06T00:01:17;3.03;;;2.60;;
14965;SDS011;7577;45.226;5.798;2022-08-06T00:03:49;3.03;;;2.70;;
14965;SDS011;7577;45.226;5.798;2022-08-06T00:06:21;4.53;;;2.47;;
14965;SDS011;7577;45.226;5.798;2022-08-06T00:08:51;3.03;;;2.47;;
14965;SDS011;7577;45.226;5.798;2022-08-06T00:11:21;5.37;;;2.70;;
14965;SDS011;7577;45.226;5.798;2022-08-06T00:13:51;3.80;;;2.77;;
14965;SDS011;7577;45.226;5.798;2022-08-06T00:16:23;2.57;;;2.37;;
14965;SDS011;7577;45.226;5.798;2022-08-06T00:18:53;3.60;;;2.87;;
14965;SDS011;7577;45.226;5.798;2022-08-06T00:32:01;2.50;;;2.30;;
14965;SDS011;7577;45.226;5.798;2022-08-06T00:34:42;2.73;;;2.53;;
14965;SDS011;7577;45.226;5.798;2022-08-06T00:37:13;3.80;;;2.80;;
14965;SDS011;7577;45.226;5.798;2022-08-06T00:39:43;3.77;;;2.50;;
14965;SDS011;7577;45.226;5.798;2022-08-06T00:42:13;2.90;;;2.63;;
14965;SDS011;7577;45.226;5.798;2022-08-06T00:44:44;3.90;;;2.50;;
14965;SDS011;7577;45.226;5.798;2022-08-06T00:47:14;3.77;;;2.90;;
14965;SDS011;7577;45.226;5.798;2022-08-06T00:49:44;2.60;;;2.40;;
14965;SDS011;7577;45.226;5.798;2022-08-06T00:52:15;2.30;;;2.20;;
14965;SDS011;7577;45.226;5.798;2022-08-06T00:54:45;3.27;;;2.40;;
14965;SDS011;7577;45.226;5.798;2022-08-06T00:57:15;3.77;;;2.50;;
14965;SDS011;7577;45.226;5.798;2022-08-06T00:59:46;3.53;;;2.60;;
14965;SDS011;7577;45.226;5.798;2022-08-06T01:02:16;2.13;;;2.03;;
14965;SDS011;7577;45.226;5.798;2022-08-06T01:04:47;2.40;;;2.13;;
14965;SDS011;7577;45.226;5.798;2022-08-06T01:07:17;5.27;;;2.40;;
14965;SDS011;7577;45.226;5.798;2022-08-06T01:09:48;3.10;;;2.20;;
14965;SDS011;7577;45.226;5.798;2022-08-06T01:12:18;3.03;;;2.00;;
14965;SDS011;7577;45.226;5.798;2022-08-06T01:14:48;4.53;;;2.63;;
14965;SDS011;7577;45.226;5.798;2022-08-06T01:17:22;3.27;;;2.50;;
14965;SDS011;7577;45.226;5.798;2022-08-06T01:30:29;3.23;;;2.57;;
14965;SDS011;7577;45.226;5.798;2022-08-06T01:46:05;2.67;;;2.47;;
14965;SDS011;7577;45.226;5.798;2022-08-06T01:48:38;3.17;;;2.43;;
14965;SDS011;7577;45.226;5.798;2022-08-06T01:51:10;2.83;;;2.30;;
14965;SDS011;7577;45.226;5.798;2022-08-06T01:53:51;2.90;;;2.30;;
14965;SDS011;7577;45.226;5.798;2022-08-06T01:56:24;3.53;;;2.70;;
14965;SDS011;7577;45.226;5.798;2022-08-06T01:58:56;5.87;;;2.90;;
14965;SDS011;7577;45.226;5.798;2022-08-06T02:01:28;3.23;;;2.93;;
14965;SDS011;7577;45.226;5.798;2022-08-06T02:04:02;3.87;;;2.60;;
14965;SDS011;7577;45.226;5.798;2022-08-06T02:06:33;3.33;;;2.50;;
14965;SDS011;7577;45.226;5.798;2022-08-06T02:09:07;2.80;;;2.40;;
14965;SDS011;7577;45.226;5.798;2022-08-06T02:11:53;2.97;;;2.60;;
14965;SDS011;7577;45.226;5.798;2022-08-06T02:14:24;3.13;;;2.83;;
14965;SDS011;7577;45.226;5.798;2022-08-06T02:17:07;3.60;;;2.63;;
14965;SDS011;7577;45.226;5.798;2022-08-06T02:19:41;4.27;;;2.43;;
14965;SDS011;7577;45.226;5.798;2022-08-06T02:22:14;2.73;;;2.53;;
14965;SDS011;7577;45.226;5.798;2022-08-06T02:24:46;3.40;;;2.50;;
14965;SDS011;7577;45.226;5.798;2022-08-06T02:27:17;2.90;;;2.53;;
14965;SDS011;7577;45.226;5.798;2022-08-06T02:29:49;2.83;;;2.60;;
14965;SDS011;7577;45.226;5.798;2022-08-06T02:32:20;4.77;;;2.70;;
14965;SDS011;7577;45.226;5.798;2022-08-06T02:34:50;5.37;;;2.73;;
14965;SDS011;7577;45.226;5.798;2022-08-06T02:37:21;3.90;;;2.67;;
14965;SDS011;7577;45.226;5.798;2022-08-06T02:50:43;2.73;;;2.27;;
14965;SDS011;7577;45.226;5.798;2022-08-06T02:53:16;3.40;;;2.33;;
14965;SDS011;7577;45.226;5.798;2022-08-06T02:55:48;3.47;;;2.60;;
14965;SDS011;7577;45.226;5.798;2022-08-06T02:58:23;2.87;;;2.30;;
14965;SDS011;7577;45.226;5.798;2022-08-06T03:11:29;2.87;;;2.30;;
14965;SDS011;7577;45.226;5.798;2022-08-06T03:24:35;2.37;;;2.17;;
14965;SDS011;7577;45.226;5.798;2022-08-06T03:27:08;4.43;;;2.40;;
14965;SDS011;7577;45.226;5.798;2022-08-06T03:29:40;2.90;;;2.50;;
14965;SDS011;7577;45.226;5.798;2022-08-06T03:32:22;4.17;;;2.63;;
14965;SDS011;7577;45.226;5.798;2022-08-06T03:34:56;2.43;;;2.23;;
14965;SDS011;7577;45.226;5.798;2022-08-06T03:37:28;4.10;;;2.60;;
14965;SDS011;7577;45.226;5.798;2022-08-06T03:40:11;2.63;;;2.43;;
14965;SDS011;7577;45.226;5.798;2022-08-06T03:42:43;3.10;;;2.80;;
14965;SDS011;7577;45.226;5.798;2022-08-06T03:45:14;2.40;;;2.20;;
14965;SDS011;7577;45.226;5.798;2022-08-06T03:47:46;2.60;;;2.40;;
14965;SDS011;7577;45.226;5.798;2022-08-06T03:50:29;3.03;;;2.37;;
14965;SDS011;7577;45.226;5.798;2022-08-06T03:53:00;5.43;;;2.60;;
14965;SDS011;7577;45.226;5.798;2022-08-06T03:55:34;3.70;;;2.30;;
14965;SDS011;7577;45.226;5.798;2022-08-06T03:58:07;2.73;;;2.47;;
14965;SDS011;7577;45.226;5.798;2022-08-06T04:00:40;2.90;;;2.70;;
14965;SDS011;7577;45.226;5.798;2022-08-06T04:03:12;4.83;;;2.90;;
14965;SDS011;7577;45.226;5.798;2022-08-06T04:05:45;3.50;;;2.93;;
14965;SDS011;7577;45.226;5.798;2022-08-06T04:08:16;3.50;;;2.70;;
14965;SDS011;7577;45.226;5.798;2022-08-06T04:11:01;3.00;;;2.70;;
14965;SDS011;7577;45.226;5.798;2022-08-06T04:13:34;3.60;;;3.30;;
14965;SDS011;7577;45.226;5.798;2022-08-06T04:16:06;3.43;;;2.80;;
14965;SDS011;7577;45.226;5.798;2022-08-06T04:18:47;3.70;;;3.40;;
14965;SDS011;7577;45.226;5.798;2022-08-06T04:21:22;6.57;;;3.60;;
14965;SDS011;7577;45.226;5.798;2022-08-06T04:23:53;5.40;;;3.47;;
14965;SDS011;7577;45.226;5.798;2022-08-06T04:26:24;3.70;;;3.40;;
14965;SDS011;7577;45.226;5.798;2022-08-06T04:28:56;4.03;;;3.17;;
14965;SDS011;7577;45.226;5.798;2022-08-06T04:31:28;3.90;;;3.50;;
14965;SDS011;7577;45.226;5.798;2022-08-06T04:34:12;3.53;;;3.13;;
14965;SDS011;7577;45.226;5.798;2022-08-06T04:36:45;3.97;;;3.30;;
14965;SDS011;7577;45.226;5.798;2022-08-06T04:39:16;3.13;;;2.77;;
14965;SDS011;7577;45.226;5.798;2022-08-06T04:41:49;3.17;;;2.70;;
14965;SDS011;7577;45.226;5.798;2022-08-06T04:44:20;3.03;;;2.73;;
14965;SDS011;7577;45.226;5.798;2022-08-06T04:46:50;3.27;;;2.97;;
14965;SDS011;7577;45.226;5.798;2022-08-06T04:49:21;2.83;;;2.60;;
14965;SDS011;7577;45.226;5.798;2022-08-06T04:51:51;3.17;;;2.73;;
14965;SDS011;7577;45.226;5.798;2022-08-06T04:54:21;4.77;;;2.80;;
14965;SDS011;7577;45.226;5.798;2022-08-06T04:56:52;4.10;;;3.17;;
14965;SDS011;7577;45.226;5.798;2022-08-06T04:59:23;4.83;;;3.20;;
14965;SDS011;7577;45.226;5.798;2022-08-06T05:01:53;5.17;;;2.90;;
14965;SDS011;7577;45.226;5.798;2022-08-06T05:04:23;3.47;;;3.17;;
14965;SDS011;7577;45.226;5.798;2022-08-06T05:07:06;3.53;;;2.97;;
14965;SDS011;7577;45.226;5.798;2022-08-06T05:09:40;3.63;;;3.33;;
14965;SDS011;7577;45.226;5.798;2022-08-06T05:12:13;4.17;;;3.73;;
14965;SDS011;7577;45.226;5.798;2022-08-06T05:14:48;3.67;;;3.30;;
14965;SDS011;7577;45.226;5.798;2022-08-06T05:17:32;4.13;;;3.67;;
14965;SDS011;7577;45.226;5.798;2022-08-06T05:20:09;6.50;;;3.83;;
14965;SDS011;7577;45.226;5.798;2022-08-06T05:22:41;5.70;;;4.40;;
14965;SDS011;7577;45.226;5.798;2022-08-06T05:25:15;5.37;;;4.77;;
14965;SDS011;7577;45.226;5.798;2022-08-06T05:27:46;5.07;;;4.67;;
14965;SDS011;7577;45.226;5.798;2022-08-06T05:30:17;4.47;;;3.90;;
14965;SDS011;7577;45.226;5.798;2022-08-06T05:32:48;5.13;;;4.60;;
14965;SDS011;7577;45.226;5.798;2022-08-06T05:48:36;3.73;;;2.70;;
14965;SDS011;7577;45.226;5.798;2022-08-06T05:51:31;4.10;;;2.87;;
14965;SDS011;7577;45.226;5.798;2022-08-06T06:21:13;3.77;;;3.12;;
14965;SDS011;7577;45.226;5.798;2022-08-06T07:07:04;3.00;;;2.22;;
14965;SDS011;7577;45.226;5.798;2022-08-06T09:53:09;4.17;;;2.70;;
14965;SDS011;7577;45.226;5.798;2022-08-06T10:19:36;3.77;;;2.90;;
14965;SDS011;7577;45.226;5.798;2022-08-06T10:26:16;3.60;;;3.30;;
14965;SDS011;7577;45.226;5.798;2022-08-06T10:28:48;3.87;;;3.17;;
14965;SDS011;7577;45.226;5.798;2022-08-06T10:31:23;5.07;;;3.57;;
14965;SDS011;7577;45.226;5.798;2022-08-06T10:33:57;5.20;;;3.00;;
14965;SDS011;7577;45.226;5.798;2022-08-06T10:39:55;3.13;;;2.77;;
14965;SDS011;7577;45.226;5.798;2022-08-06T10:42:28;3.10;;;2.80;;
14965;SDS011;7577;45.226;5.798;2022-08-06T10:48:16;3.27;;;2.80;;
14965;SDS011;7577;45.226;5.798;2022-08-06T10:51:06;2.83;;;2.63;;
14965;SDS011;7577;45.226;5.798;2022-08-06T10:57:07;4.60;;;3.33;;
14965;SDS011;7577;45.226;5.798;2022-08-06T10:59:40;4.53;;;3.17;;
14965;SDS011;7577;45.226;5.798;2022-08-06T11:05:33;2.90;;;2.70;;
14965;SDS011;7577;45.226;5.798;2022-08-06T11:08:11;3.27;;;2.97;;
14965;SDS011;7577;45.226;5.798;2022-08-06T11:11:16;3.93;;;3.10;;
14965;SDS011;7577;45.226;5.798;2022-08-06T11:14:01;3.93;;;3.63;;
14965;SDS011;7577;45.226;5.798;2022-08-06T11:16:57;3.67;;;3.10;;
14965;SDS011;7577;45.226;5.798;2022-08-06T11:26:36;3.03;;;2.73;;
14965;SDS011;7577;45.226;5.798;2022-08-06T11:29:25;3.50;;;3.20;;
14965;SDS011;7577;45.226;5.798;2022-08-06T11:31:57;3.27;;;2.90;;
14965;SDS011;7577;45.226;5.798;2022-08-06T11:48:06;3.77;;;3.20;;
14965;SDS011;7577;45.226;5.798;2022-08-06T11:50:37;2.73;;;2.50;;
14965;SDS011;7577;45.226;5.798;2022-08-06T11:53:07;3.70;;;2.63;;
14965;SDS011;7577;45.226;5.798;2022-08-06T11:56:03;5.20;;;3.23;;
14965;SDS011;7577;45.226;5.798;2022-08-06T11:58:35;3.33;;;3.03;;
14965;SDS011;7577;45.226;5.798;2022-08-06T12:01:12;5.63;;;3.07;;
14965;SDS011;7577;45.226;5.798;2022-08-06T12:03:45;3.10;;;2.80;;
14965;SDS011;7577;45.226;5.798;2022-08-06T12:06:20;5.00;;;3.07;;
14965;SDS011;7577;45.226;5.798;2022-08-06T12:09:06;2.87;;;2.67;;
14965;SDS011;7577;45.226;5.798;2022-08-06T12:11:41;3.10;;;2.80;;
14965;SDS011;7577;45.226;5.798;2022-08-06T12:17:10;3.43;;;3.03;;
14965;SDS011;7577;45.226;5.798;2022-08-06T12:19:54;3.27;;;2.70;;
14965;SDS011;7577;45.226;5.798;2022-08-06T12:22:27;3.30;;;3.00;;
14965;SDS011;7577;45.226;5.798;2022-08-06T12:25:07;3.43;;;3.13;;
14965;SDS011;7577;45.226;5.798;2022-08-06T12:27:38;3.30;;;3.00;;
14965;SDS011;7577;45.226;5.798;2022-08-06T12:30:12;3.40;;;3.10;;
14965;SDS011;7577;45.226;5.798;2022-08-06T12:32:43;3.53;;;2.87;;
14965;SDS011;7577;45.226;5.798;2022-08-06T12:35:23;3.00;;;2.80;;
14965;SDS011;7577;45.226;5.798;2022-08-06T12:37:53;4.43;;;3.10;;
14965;SDS011;7577;45.226;5.798;2022-08-06T12:40:24;4.30;;;3.37;;
14965;SDS011;7577;45.226;5.798;2022-08-06T12:43:09;3.50;;;3.00;;
14965;SDS011;7577;45.226;5.798;2022-08-06T12:45:40;3.37;;;3.07;;
14965;SDS011;7577;45.226;5.798;2022-08-06T12:48:11;3.33;;;3.00;;
14965;SDS011;7577;45.226;5.798;2022-08-06T12:50:43;3.30;;;2.90;;
14965;SDS011;7577;45.226;5.798;2022-08-06T12:53:14;3.17;;;2.80;;
14965;SDS011;7577;45.226;5.798;2022-08-06T12:55:46;3.67;;;2.97;;
14965;SDS011;7577;45.226;5.798;2022-08-06T12:58:22;3.77;;;2.60;;
14965;SDS011;7577;45.226;5.798;2022-08-06T13:00:54;3.23;;;2.93;;
14965;SDS011;7577;45.226;5.798;2022-08-06T13:03:28;3.20;;;3.00;;
14965;SDS011;7577;45.226;5.798;2022-08-06T13:06:11;3.23;;;2.90;;
14965;SDS011;7577;45.226;5.798;2022-08-06T13:08:45;3.10;;;2.77;;
14965;SDS011;7577;45.226;5.798;2022-08-06T13:11:17;3.30;;;3.00;;
14965;SDS011;7577;45.226;5.798;2022-08-06T13:13:49;3.30;;;3.10;;
14965;SDS011;7577;45.226;5.798;2022-08-06T13:16:20;2.80;;;2.60;;
14965;SDS011;7577;45.226;5.798;2022-08-06T13:19:03;4.03;;;2.80;;
14965;SDS011;7577;45.226;5.798;2022-08-06T13:21:38;4.80;;;2.87;;
14965;SDS011;7577;45.226;5.798;2022-08-06T13:24:10;2.90;;;2.70;;
14965;SDS011;7577;45.226;5.798;2022-08-06T13:26:50;3.50;;;3.00;;
14965;SDS011;7577;45.226;5.798;2022-08-06T13:29:24;3.00;;;2.70;;
14965;SDS011;7577;45.226;5.798;2022-08-06T13:32:03;4.00;;;3.00;;
14965;SDS011;7577;45.226;5.798;2022-08-06T13:34:47;3.00;;;2.80;;
14965;SDS011;7577;45.226;5.798;2022-08-06T13:40:35;3.02;;;2.77;;
14965;SDS011;7577;45.226;5.798;2022-08-06T13:43:09;2.93;;;2.60;;
14965;SDS011;7577;45.226;5.798;2022-08-06T13:45:39;4.40;;;2.52;;
14965;SDS011;7577;45.226;5.798;2022-08-06T13:48:10;3.72;;;3.25;;
14965;SDS011;7577;45.226;5.798;2022-08-06T13:50:42;3.77;;;3.00;;
14965;SDS011;7577;45.226;5.798;2022-08-06T13:53:13;3.60;;;2.70;;
14965;SDS011;7577;45.226;5.798;2022-08-06T13:55:44;3.02;;;2.77;;
14965;SDS011;7577;45.226;5.798;2022-08-06T13:58:14;4.07;;;2.80;;
14965;SDS011;7577;45.226;5.798;2022-08-06T14:00:45;3.00;;;2.70;;
14965;SDS011;7577;45.226;5.798;2022-08-06T14:03:16;2.80;;;2.53;;
14965;SDS011;7577;45.226;5.798;2022-08-06T14:05:46;3.45;;;2.92;;
14965;SDS011;7577;45.226;5.798;2022-08-06T14:08:17;4.27;;;3.20;;
14965;SDS011;7577;45.226;5.798;2022-08-06T14:10:47;3.47;;;2.42;;
14965;SDS011;7577;45.226;5.798;2022-08-06T14:13:18;2.92;;;2.62;;
14965;SDS011;7577;45.226;5.798;2022-08-06T14:15:50;2.93;;;2.70;;
14965;SDS011;7577;45.226;5.798;2022-08-06T14:18:21;3.57;;;2.70;;
14965;SDS011;7577;45.226;5.798;2022-08-06T14:20:52;2.55;;;2.40;;
14965;SDS011;7577;45.226;5.798;2022-08-06T14:23:36;2.60;;;2.40;;
14965;SDS011;7577;45.226;5.798;2022-08-06T14:26:06;3.53;;;2.57;;
14965;SDS011;7577;45.226;5.798;2022-08-06T14:28:37;2.67;;;2.40;;
14965;SDS011;7577;45.226;5.798;2022-08-06T14:31:07;3.87;;;2.50;;
14965;SDS011;7577;45.226;5.798;2022-08-06T14:33:38;2.93;;;2.50;;
14965;SDS011;7577;45.226;5.798;2022-08-06T14:36:19;3.00;;;2.50;;
14965;SDS011;7577;45.226;5.798;2022-08-06T14:38:52;2.83;;;2.55;;
14965;SDS011;7577;45.226;5.798;2022-08-06T14:41:22;2.85;;;2.50;;
14965;SDS011;7577;45.226;5.798;2022-08-06T14:44:12;3.00;;;2.80;;
14965;SDS011;7577;45.226;5.798;2022-08-06T14:46:59;2.70;;;2.50;;
14965;SDS011;7577;45.226;5.798;2022-08-06T14:49:32;2.83;;;2.57;;
14965;SDS011;7577;45.226;5.798;2022-08-06T15:02:39;2.90;;;2.70;;
14965;SDS011;7577;45.226;5.798;2022-08-06T15:05:20;2.63;;;2.33;;
14965;SDS011;7577;45.226;5.798;2022-08-06T15:08:05;2.87;;;2.53;;
14965;SDS011;7577;45.226;5.798;2022-08-06T15:10:41;2.87;;;2.67;;
14965;SDS011;7577;45.226;5.798;2022-08-06T15:13:12;3.33;;;2.60;;
14965;SDS011;7577;45.226;5.798;2022-08-06T15:15:49;3.83;;;2.60;;
14965;SDS011;7577;45.226;5.798;2022-08-06T15:18:37;2.73;;;2.50;;
14965;SDS011;7577;45.226;5.798;2022-08-06T15:23:53;3.60;;;2.63;;
14965;SDS011;7577;45.226;5.798;2022-08-06T15:26:24;4.37;;;2.57;;
14965;SDS011;7577;45.226;5.798;2022-08-06T15:29:02;4.37;;;2.53;;
14965;SDS011;7577;45.226;5.798;2022-08-06T15:31:39;3.47;;;2.73;;
14965;SDS011;7577;45.226;5.798;2022-08-06T15:34:23;3.77;;;2.40;;
14965;SDS011;7577;45.226;5.798;2022-08-06T15:37:00;2.97;;;2.67;;
14965;SDS011;7577;45.226;5.798;2022-08-06T15:39:34;3.20;;;2.70;;
14965;SDS011;7577;45.226;5.798;2022-08-06T15:42:12;3.00;;;2.80;;
14965;SDS011;7577;45.226;5.798;2022-08-06T15:44:46;2.67;;;2.47;;
14965;SDS011;7577;45.226;5.798;2022-08-06T15:47:37;3.70;;;2.80;;
14965;SDS011;7577;45.226;5.798;2022-08-06T15:50:16;2.97;;;2.67;;
14965;SDS011;7577;45.226;5.798;2022-08-06T15:53:00;2.70;;;2.50;;
14965;SDS011;7577;45.226;5.798;2022-08-06T15:55:39;3.00;;;2.70;;
14965;SDS011;7577;45.226;5.798;2022-08-06T15:58:14;3.33;;;2.40;;
14965;SDS011;7577;45.226;5.798;2022-08-06T16:00:45;2.80;;;2.60;;
14965;SDS011;7577;45.226;5.798;2022-08-06T16:03:24;2.97;;;2.47;;
14965;SDS011;7577;45.226;5.798;2022-08-06T16:05:54;2.87;;;2.57;;
14965;SDS011;7577;45.226;5.798;2022-08-06T16:08:42;3.47;;;2.80;;
14965;SDS011;7577;45.226;5.798;2022-08-06T16:11:12;3.23;;;2.60;;
14965;SDS011;7577;45.226;5.798;2022-08-06T16:13:52;4.17;;;2.70;;
14965;SDS011;7577;45.226;5.798;2022-08-06T16:16:27;3.13;;;2.50;;
14965;SDS011;7577;45.226;5.798;2022-08-06T16:19:11;3.07;;;2.77;;
14965;SDS011;7577;45.226;5.798;2022-08-06T16:21:49;2.80;;;2.60;;
14965;SDS011;7577;45.226;5.798;2022-08-06T16:24:33;3.00;;;2.63;;
14965;SDS011;7577;45.226;5.798;2022-08-06T16:27:03;2.97;;;2.67;;
14965;SDS011;7577;45.226;5.798;2022-08-06T16:29:36;5.57;;;2.87;;
14965;SDS011;7577;45.226;5.798;2022-08-06T16:32:10;6.23;;;2.27;;
14965;SDS011;7577;45.226;5.798;2022-08-06T16:45:50;2.42;;;2.22;;
14965;SDS011;7577;45.226;5.798;2022-08-06T16:48:24;3.80;;;2.47;;
14965;SDS011;7577;45.226;5.798;2022-08-06T16:51:07;2.90;;;2.60;;
14965;SDS011;7577;45.226;5.798;2022-08-06T16:53:41;2.70;;;2.43;;
14965;SDS011;7577;45.226;5.798;2022-08-06T16:56:26;3.93;;;2.43;;
14965;SDS011;7577;45.226;5.798;2022-08-06T16:59:04;4.73;;;2.57;;
14965;SDS011;7577;45.226;5.798;2022-08-06T17:01:41;2.43;;;2.23;;
14965;SDS011;7577;45.226;5.798;2022-08-06T17:04:15;2.57;;;2.37;;
14965;SDS011;7577;45.226;5.798;2022-08-06T17:06:46;2.77;;;2.53;;
14965;SDS011;7577;45.226;5.798;2022-08-06T17:09:17;2.70;;;2.50;;
14965;SDS011;7577;45.226;5.798;2022-08-06T17:11:51;2.60;;;2.40;;
14965;SDS011;7577;45.226;5.798;2022-08-06T17:14:31;4.60;;;2.53;;
14965;SDS011;7577;45.226;5.798;2022-08-06T17:17:08;2.40;;;2.23;;
14965;SDS011;7577;45.226;5.798;2022-08-06T17:19:40;7.03;;;2.70;;
14965;SDS011;7577;45.226;5.798;2022-08-06T17:43:31;2.93;;;2.50;;
14965;SDS011;7577;45.226;5.798;2022-08-06T17:46:01;2.90;;;2.40;;
14965;SDS011;7577;45.226;5.798;2022-08-06T17:59:21;2.93;;;2.63;;
14965;SDS011;7577;45.226;5.798;2022-08-06T18:01:51;2.50;;;2.30;;
14965;SDS011;7577;45.226;5.798;2022-08-06T18:04:22;2.30;;;2.20;;
14965;SDS011;7577;45.226;5.798;2022-08-06T18:06:52;3.73;;;2.53;;
14965;SDS011;7577;45.226;5.798;2022-08-06T18:09:23;3.30;;;2.53;;
14965;SDS011;7577;45.226;5.798;2022-08-06T18:11:53;2.93;;;2.40;;
14965;SDS011;7577;45.226;5.798;2022-08-06T18:14:25;2.77;;;2.43;;
14965;SDS011;7577;45.226;5.798;2022-08-06T18:17:12;4.70;;;2.13;;
14965;SDS011;7577;45.226;5.798;2022-08-06T18:19:42;4.00;;;2.40;;
14965;SDS011;7577;45.226;5.798;2022-08-06T18:33:10;2.67;;;2.30;;
14965;SDS011;7577;45.226;5.798;2022-08-06T18:35:41;2.10;;;1.90;;
14965;SDS011;7577;45.226;5.798;2022-08-06T18:38:22;2.47;;;2.27;;
14965;SDS011;7577;45.226;5.798;2022-08-06T18:40:52;2.90;;;1.87;;
14965;SDS011;7577;45.226;5.798;2022-08-06T18:43:22;2.40;;;2.10;;
14965;SDS011;7577;45.226;5.798;2022-08-06T18:45:52;4.43;;;2.27;;
14965;SDS011;7577;45.226;5.798;2022-08-06T18:48:24;2.17;;;2.00;;
14965;SDS011;7577;45.226;5.798;2022-08-06T19:17:31;4.97;;;4.40;;
14965;SDS011;7577;45.226;5.798;2022-08-06T19:20:01;3.87;;;3.43;;
14965;SDS011;7577;45.226;5.798;2022-08-06T19:44:03;2.80;;;2.30;;
14965;SDS011;7577;45.226;5.798;2022-08-06T19:46:33;2.53;;;2.10;;
14965;SDS011;7577;45.226;5.798;2022-08-06T19:49:03;3.47;;;2.00;;
14965;SDS011;7577;45.226;5.798;2022-08-06T19:51:34;3.93;;;2.20;;
14965;SDS011;7577;45.226;5.798;2022-08-06T19:54:05;3.20;;;2.07;;
14965;SDS011;7577;45.226;5.798;2022-08-06T19:56:36;2.40;;;2.20;;
14965;SDS011;7577;45.226;5.798;2022-08-06T19:59:06;1.87;;;1.70;;
14965;SDS011;7577;45.226;5.798;2022-08-06T20:01:37;4.90;;;2.03;;
14965;SDS011;7577;45.226;5.798;2022-08-06T20:04:07;2.47;;;2.27;;
14965;SDS011;7577;45.226;5.798;2022-08-06T20:06:39;2.80;;;2.10;;
14965;SDS011;7577;45.226;5.798;2022-08-06T20:09:09;2.40;;;2.20;;
14965;SDS011;7577;45.226;5.798;2022-08-06T20:11:54;3.07;;;2.23;;
14965;SDS011;7577;45.226;5.798;2022-08-06T20:14:26;3.23;;;2.27;;
14965;SDS011;7577;45.226;5.798;2022-08-06T20:38:31;2.43;;;2.00;;
14965;SDS011;7577;45.226;5.798;2022-08-06T20:41:01;3.40;;;2.40;;
14965;SDS011;7577;45.226;5.798;2022-08-06T20:43:34;2.60;;;2.40;;
14965;SDS011;7577;45.226;5.798;2022-08-06T20:46:04;2.23;;;2.03;;
14965;SDS011;7577;45.226;5.798;2022-08-06T20:48:35;2.57;;;2.37;;
14965;SDS011;7577;45.226;5.798;2022-08-06T20:51:05;2.53;;;2.33;;
14965;SDS011;7577;45.226;5.798;2022-08-06T20:53:35;2.50;;;2.27;;
14965;SDS011;7577;45.226;5.798;2022-08-06T20:56:07;2.70;;;2.17;;
14965;SDS011;7577;45.226;5.798;2022-08-06T20:58:39;2.67;;;2.47;;
14965;SDS011;7577;45.226;5.798;2022-08-06T21:01:10;2.90;;;2.47;;
14965;SDS011;7577;45.226;5.798;2022-08-06T21:03:40;2.60;;;2.40;;
14965;SDS011;7577;45.226;5.798;2022-08-06T21:06:10;3.13;;;2.60;;
14965;SDS011;7577;45.226;5.798;2022-08-06T21:08:40;2.73;;;2.53;;
14965;SDS011;7577;45.226;5.798;2022-08-06T21:22:04;2.50;;;2.30;;
14965;SDS011;7577;45.226;5.798;2022-08-06T21:24:35;2.87;;;2.30;;
14965;SDS011;7577;45.226;5.798;2022-08-06T21:27:05;3.70;;;2.50;;
14965;SDS011;7577;45.226;5.798;2022-08-06T21:29:35;2.73;;;2.40;;
14965;SDS011;7577;45.226;5.798;2022-08-06T21:32:05;3.13;;;2.40;;
14965;SDS011;7577;45.226;5.798;2022-08-06T21:45:28;2.50;;;2.30;;
14965;SDS011;7577;45.226;5.798;2022-08-06T21:47:58;3.43;;;2.47;;
14965;SDS011;7577;45.226;5.798;2022-08-06T21:50:30;2.20;;;2.03;;
14965;SDS011;7577;45.226;5.798;2022-08-06T21:53:00;6.73;;;3.33;;
14965;SDS011;7577;45.226;5.798;2022-08-06T21:55:30;2.70;;;2.50;;
14965;SDS011;7577;45.226;5.798;2022-08-06T21:58:00;2.23;;;2.07;;
14965;SDS011;7577;45.226;5.798;2022-08-06T22:00:38;2.53;;;2.33;;
14965;SDS011;7577;45.226;5.798;2022-08-06T22:03:11;3.03;;;2.83;;
14965;SDS011;7577;45.226;5.798;2022-08-06T22:05:42;4.57;;;2.43;;
14965;SDS011;7577;45.226;5.798;2022-08-06T22:08:14;2.67;;;2.30;;
14965;SDS011;7577;45.226;5.798;2022-08-06T22:10:45;2.87;;;2.47;;
14965;SDS011;7577;45.226;5.798;2022-08-06T22:13:15;2.60;;;2.40;;
14965;SDS011;7577;45.226;5.798;2022-08-06T22:15:46;2.53;;;2.33;;
14965;SDS011;7577;45.226;5.798;2022-08-06T22:18:16;3.13;;;2.60;;
14965;SDS011;7577;45.226;5.798;2022-08-06T22:21:00;2.70;;;2.50;;
14965;SDS011;7577;45.226;5.798;2022-08-06T22:23:30;3.10;;;2.30;;
14965;SDS011;7577;45.226;5.798;2022-08-06T22:26:00;2.60;;;2.40;;
14965;SDS011;7577;45.226;5.798;2022-08-06T22:28:31;2.30;;;2.10;;
14965;SDS011;7577;45.226;5.798;2022-08-06T22:31:01;2.60;;;2.37;;
14965;SDS011;7577;45.226;5.798;2022-08-06T22:33:31;3.90;;;2.50;;
14965;SDS011;7577;45.226;5.798;2022-08-06T22:46:36;2.40;;;2.20;;
14965;SDS011;7577;45.226;5.798;2022-08-06T22:49:06;2.23;;;2.07;;
14965;SDS011;7577;45.226;5.798;2022-08-06T23:23:33;2.77;;;2.57;;
14965;SDS011;7577;45.226;5.798;2022-08-06T23:26:03;3.60;;;2.90;;
14965;SDS011;7577;45.226;5.798;2022-08-06T23:28:33;2.63;;;2.43;;
14965;SDS011;7577;45.226;5.798;2022-08-06T23:52:20;2.70;;;2.50;;
14965;SDS011;7577;45.226;5.798;2022-08-06T23:54:50;3.20;;;2.90;;
